GW0720 Weather Reports


Display with metric or nautical units.
time (UTC)temp
F
wind
direction
speed
MPH
gust
MPH
rain 1hr
in
rain 24hr
in
rain mn
in
humidity
%
barometer
mb
20260510020118 60 0 0.0 0.0 0.00 0.00 0.00 87 1011.0
20260510014601 61 0 0.0 0.0 0.00 0.00 0.00 86 1010.8
20260510013051 61 0 0.0 0.0 0.00 0.00 0.00 84 1010.7
20260510011552 62 0 0.0 0.0 0.00 0.00 0.00 82 1010.5
20260510010054 63 0 0.0 0.0 0.00 0.00 0.00 80 1010.4
20260510004553 64 0 0.0 0.0 0.00 0.00 0.00 78 1010.2
20260510003101 66 0 0.0 0.0 0.00 0.00 0.00 76 1010.2
20260510001556 68 0 0.0 0.0 0.00 0.00 0.00 73 1010.2
20260510000057 69 0 0.0 0.0 0.00 0.00 0.00 67 1010.0
20260509234558 71 0 0.0 1.0 0.00 0.00 0.00 64 1009.7
20260509233103 72 0 0.0 1.0 0.00 0.00 0.00 61 1009.7
20260509231555 73 0 0.0 0.0 0.00 0.00 0.00 61 1009.6
20260509230059 74 0 0.0 2.0 0.00 0.00 0.00 57 1009.6
20260509224553 75 0 0.0 2.0 0.00 0.00 0.00 56 1009.5
20260509223057 75 0 0.0 5.0 0.00 0.00 0.00 55 1009.5
20260509221553 75 0 0.0 3.0 0.00 0.00 0.00 55 1009.6
20260509220057 75 0 0.0 5.0 0.00 0.00 0.00 57 1009.5
20260509214553 76 0 0.0 4.0 0.00 0.00 0.00 55 1009.5
20260509213055 76 43 0.0 3.0 0.00 0.00 0.00 52 1009.4
20260509211553 76 0 0.0 7.0 0.00 0.00 0.00 53 1009.5
20260509210055 77 344 2.0 10.0 0.00 0.00 0.00 51 1009.5
20260509204556 77 57 2.0 10.0 0.00 0.00 0.00 51 1009.3
20260509203058 77 42 1.0 8.0 0.00 0.00 0.00 53 1009.3
20260509201603 77 51 1.0 8.0 0.00 0.00 0.00 52 1009.4
20260509200110 77 42 1.0 6.0 0.00 0.00 0.00 52 1009.6
20260509194601 76 0 1.0 3.0 0.00 0.00 0.00 51 1009.6
20260509193112 73 36 0.0 8.0 0.00 0.00 0.00 56 1010.0
20260509191556 74 255 1.0 6.0 0.00 0.00 0.00 55 1010.1
20260509190106 75 254 1.0 6.0 0.00 0.00 0.00 50 1010.2
20260509184605 76 288 1.0 6.0 0.00 0.00 0.00 53 1010.6
20260509183100 75 0 1.0 11.0 0.00 0.00 0.00 51 1010.8
20260509181553 74 340 0.0 6.0 0.00 0.00 0.00 53 1010.8
20260509180055 75 0 2.0 10.0 0.00 0.00 0.00 51 1010.9
20260509174602 74 243 1.0 11.0 0.00 0.00 0.00 52 1011.1
20260509173109 75 71 1.0 6.0 0.00 0.00 0.00 53 1011.0
20260509171618 74 38 2.0 9.0 0.00 0.00 0.00 53 1011.3
20260509170054 74 19 2.0 6.0 0.00 0.00 0.00 54 1011.8
20260509164553 74 0 1.0 8.0 0.00 0.00 0.00 54 1012.0
20260509163107 73 59 3.0 7.0 0.00 0.00 0.00 55 1012.2
20260509161555 73 11 1.0 6.0 0.00 0.00 0.00 55 1012.0
20260509160059 71 232 2.0 8.0 0.00 0.00 0.00 58 1012.3
20260509154554 70 29 2.0 9.0 0.00 0.00 0.00 59 1012.3
20260509153052 71 49 3.0 7.0 0.00 0.00 0.00 59 1012.4
20260509151552 70 256 1.0 8.0 0.00 0.00 0.00 61 1012.7
20260509150104 69 43 1.0 8.0 0.00 0.00 0.00 63 1012.8
20260509144707 69 42 4.0 9.0 0.00 0.00 0.00 63 1013.0
20260509143101 68 0 0.0 4.0 0.00 0.00 0.00 68 1013.4
20260509141552 67 29 3.0 11.0 0.00 0.00 0.00 67 1013.3
20260509140059 65 117 1.0 7.0 0.00 0.00 0.00 70 1013.4
20260509134551 64 26 0.0 4.0 0.00 0.00 0.00 76 1013.5
20260509133054 63 348 1.0 7.0 0.00 0.00 0.00 74 1014.0
20260509131553 63 0 0.0 5.0 0.00 0.00 0.00 77 1014.0
20260509124610 59 0 0.0 3.0 0.00 0.00 0.00 84 1013.6
20260509123058 57 0 0.0 0.0 0.00 0.00 0.00 89 1013.6
20260509121553 55 0 0.0 2.0 0.00 0.00 0.00 92 1013.7
20260509120106 53 0 0.0 2.0 0.00 0.00 0.00 94 1013.9
20260509114554 51 0 0.0 0.0 0.00 0.00 0.00 96 1013.7
20260509113056 50 0 0.0 0.0 0.00 0.00 0.00 95 1013.6
20260509111555 49 0 0.0 0.0 0.00 0.00 0.00 95 1013.3
20260509110053 49 0 0.0 0.0 0.00 0.00 0.00 95 1013.5
20260509104558 48 0 0.0 0.0 0.00 0.00 0.00 94 1013.5
20260509103058 48 0 0.0 0.0 0.00 0.00 0.00 94 1013.5
20260509101600 48 0 0.0 0.0 0.00 0.00 0.00 93 1013.4
20260509100057 48 0 0.0 0.0 0.00 0.00 0.00 93 1013.5
20260509094554 48 0 0.0 0.0 0.00 0.00 0.00 93 1013.5
20260509093055 48 0 0.0 0.0 0.00 0.00 0.00 92 1013.6
20260509091552 49 0 0.0 0.0 0.00 0.00 0.00 92 1013.7
20260509090058 49 0 0.0 0.0 0.00 0.00 0.00 92 1013.8
20260509084559 49 0 0.0 0.0 0.00 0.00 0.00 91 1013.6
20260509083055 49 0 0.0 0.0 0.00 0.00 0.00 91 1013.5
20260509081555 49 0 0.0 1.0 0.00 0.00 0.00 90 1013.4
20260509080056 50 0 0.0 0.0 0.00 0.00 0.00 89 1013.4
20260509074602 50 0 0.0 0.0 0.00 0.00 0.00 88 1013.7
20260509073058 51 0 0.0 0.0 0.00 0.00 0.00 87 1013.8
20260509071608 51 0 0.0 0.0 0.00 0.00 0.00 85 1013.6
20260509070056 52 0 0.0 2.0 0.00 0.00 0.00 85 1013.8
20260509064606 52 0 0.0 2.0 0.00 0.00 0.00 85 1014.1
20260509063056 51 0 0.0 1.0 0.00 0.00 0.00 85 1014.5
20260509061605 51 147 0.0 2.0 0.00 0.00 0.00 85 1014.9
20260509060109 50 0 0.0 1.0 0.00 0.00 0.00 84 1014.9
20260509054613 50 0 0.0 1.0 0.00 0.00 0.00 85 1014.7
20260509053105 51 0 0.0 0.0 0.00 0.00 0.00 83 1014.6
20260509051556 51 0 0.0 3.0 0.00 0.00 0.00 84 1014.6
20260509050059 51 0 0.0 0.0 0.00 0.00 0.00 82 1014.6
20260509044553 52 0 0.0 0.0 0.00 0.00 0.00 81 1014.3
20260509043055 53 0 0.0 0.0 0.00 0.00 0.00 81 1014.3
20260509041558 53 0 0.0 0.0 0.00 0.00 0.00 79 1014.4
20260509040054 54 0 0.0 1.0 0.00 0.00 0.00 76 1014.4
20260509034603 54 0 0.0 0.0 0.00 0.00 0.00 74 1014.6
20260509033100 55 0 0.0 1.0 0.00 0.00 0.00 73 1014.8
20260509031602 55 0 0.0 2.0 0.00 0.00 0.00 72 1014.9
20260509030055 55 0 0.0 1.0 0.00 0.00 0.00 71 1014.7
20260509024554 54 0 0.0 0.0 0.00 0.00 0.00 73 1014.9